createdAt,value
2023-02-22T00:02:29.060Z,31.47
2023-02-22T00:04:59.623Z,34.47
2023-02-22T00:07:27.800Z,32.50
2023-02-22T00:10:01.586Z,29.50
2023-02-22T00:12:31.138Z,35.07
2023-02-22T00:15:00.447Z,30.30
2023-02-22T00:17:30.629Z,36.10
2023-02-22T00:20:01.419Z,35.73
2023-02-22T00:22:29.439Z,30.87
2023-02-22T00:24:59.148Z,32.73
2023-02-22T00:27:27.084Z,31.70
2023-02-22T00:29:56.533Z,31.03
2023-02-22T00:32:27.848Z,29.30
2023-02-22T00:34:56.085Z,33.73
2023-02-22T00:37:25.823Z,32.93
2023-02-22T00:39:53.849Z,29.27
2023-02-22T00:42:21.723Z,29.10
2023-02-22T00:44:49.688Z,29.23
2023-02-22T00:47:18.027Z,28.53
2023-02-22T00:49:45.943Z,29.00
2023-02-22T00:52:13.828Z,29.83
2023-02-22T00:54:43.063Z,30.87
2023-02-22T00:57:12.297Z,27.70
2023-02-22T00:59:40.231Z,28.27
2023-02-22T01:02:10.503Z,27.33
2023-02-22T01:04:39.178Z,25.93
2023-02-22T01:07:07.555Z,24.00
2023-02-22T01:09:36.262Z,24.83
2023-02-22T01:12:10.336Z,26.97
2023-02-22T01:14:40.118Z,23.30
2023-02-22T01:17:09.185Z,26.70
2023-02-22T01:19:37.048Z,23.47
2023-02-22T01:22:05.737Z,24.23
2023-02-22T01:24:34.327Z,25.60
2023-02-22T01:27:07.263Z,23.80
2023-02-22T01:29:36.866Z,23.20
2023-02-22T01:32:06.527Z,23.57
2023-02-22T01:34:39.690Z,22.53
2023-02-22T01:37:07.851Z,21.70
2023-02-22T01:39:36.161Z,23.77
2023-02-22T01:42:07.585Z,21.70
2023-02-22T01:44:38.625Z,23.37
2023-02-22T01:47:08.898Z,24.30
2023-02-22T01:49:45.998Z,23.23
2023-02-22T01:52:21.623Z,20.53
2023-02-22T01:54:53.341Z,21.43
2023-02-22T01:57:24.940Z,22.57
2023-02-22T01:59:59.922Z,21.80
2023-02-22T02:02:29.278Z,22.83
2023-02-22T02:04:59.292Z,21.97
2023-02-22T02:07:29.552Z,21.33
2023-02-22T02:10:00.205Z,23.03
2023-02-22T02:12:31.046Z,22.30
2023-02-22T02:15:26.034Z,21.00
2023-02-22T02:17:56.618Z,20.53
2023-02-22T02:20:33.060Z,18.60
2023-02-22T02:23:12.298Z,19.87
2023-02-22T02:26:13.628Z,17.80
2023-02-22T02:29:08.572Z,23.03
2023-02-22T02:32:03.724Z,19.53
2023-02-22T02:34:35.818Z,20.43
2023-02-22T02:37:12.222Z,20.00
2023-02-22T02:39:50.270Z,21.53
2023-02-22T02:42:22.840Z,19.93
2023-02-22T02:44:56.708Z,18.83
2023-02-22T02:47:31.740Z,17.43
2023-02-22T02:50:07.337Z,17.23
2023-02-22T02:52:36.478Z,18.90
2023-02-22T02:55:06.419Z,18.63
2023-02-22T02:57:34.424Z,17.03
2023-02-22T03:00:02.351Z,18.37
2023-02-22T03:02:46.276Z,17.30
2023-02-22T03:05:32.575Z,18.47
2023-02-22T03:08:07.637Z,20.17
2023-02-22T03:10:50.381Z,18.47
2023-02-22T03:13:29.892Z,21.13
2023-02-22T03:16:07.744Z,18.47
2023-02-22T03:18:46.345Z,18.43
2023-02-22T03:21:22.385Z,19.10
2023-02-22T03:23:57.880Z,18.90
2023-02-22T03:26:30.513Z,18.83
2023-02-22T03:28:59.481Z,21.00
2023-02-22T03:31:32.795Z,19.23
2023-02-22T03:34:05.782Z,18.60
2023-02-22T03:36:42.594Z,22.07
2023-02-22T03:39:16.806Z,19.43
2023-02-22T03:41:51.325Z,19.17
2023-02-22T03:44:24.552Z,17.77
2023-02-22T03:46:56.816Z,19.23
2023-02-22T03:49:34.973Z,20.87
2023-02-22T03:52:06.509Z,18.13
2023-02-22T03:54:35.081Z,19.17
2023-02-22T03:57:14.152Z,21.77
2023-02-22T03:59:42.547Z,18.33
2023-02-22T04:02:11.664Z,21.73
2023-02-22T04:04:52.953Z,22.37
2023-02-22T04:07:20.878Z,18.47
2023-02-22T04:09:48.781Z,19.10
2023-02-22T04:12:16.955Z,19.77
2023-02-22T04:14:45.008Z,19.37
2023-02-22T04:17:12.902Z,19.27
2023-02-22T04:19:43.523Z,19.80
2023-02-22T04:22:11.467Z,21.63
2023-02-22T04:24:39.404Z,19.47
2023-02-22T04:27:07.325Z,23.53
2023-02-22T04:29:35.297Z,21.73
2023-02-22T04:32:03.311Z,22.13
2023-02-22T04:34:31.223Z,22.20
2023-02-22T04:37:00.470Z,21.83
2023-02-22T04:39:28.512Z,21.20
2023-02-22T04:41:56.421Z,19.57
2023-02-22T04:44:24.313Z,19.97
2023-02-22T04:46:52.634Z,21.07
2023-02-22T04:49:20.602Z,18.57
2023-02-22T04:51:48.531Z,20.37
2023-02-22T04:54:18.352Z,21.53
2023-02-22T04:56:46.737Z,21.23
2023-02-22T04:59:14.902Z,21.27
2023-02-22T05:01:42.802Z,21.47
2023-02-22T05:04:10.650Z,21.00
2023-02-22T05:06:38.591Z,23.03
2023-02-22T05:09:06.597Z,22.10
2023-02-22T05:11:35.901Z,20.70
2023-02-22T05:14:03.797Z,22.73
2023-02-22T05:16:31.779Z,22.70
2023-02-22T05:18:59.673Z,22.93
2023-02-22T05:21:27.636Z,22.60
2023-02-22T05:23:58.965Z,24.67
2023-02-22T05:26:26.877Z,22.60
2023-02-22T05:28:56.131Z,22.97
2023-02-22T05:31:24.173Z,22.20
2023-02-22T05:33:52.184Z,23.17
2023-02-22T05:36:20.134Z,27.40
2023-02-22T05:38:48.266Z,26.97
2023-02-22T05:41:19.415Z,26.57
2023-02-22T05:43:47.788Z,28.43
2023-02-22T05:46:18.529Z,26.40
2023-02-22T05:48:46.453Z,29.47
2023-02-22T05:51:14.518Z,28.43
2023-02-22T05:53:42.630Z,28.20
2023-02-22T05:56:10.490Z,29.00
2023-02-22T05:58:48.416Z,29.43
2023-02-22T06:01:18.245Z,31.83
2023-02-22T06:03:48.639Z,29.27
2023-02-22T06:06:17.495Z,28.03
2023-02-22T06:08:45.487Z,31.43
2023-02-22T06:11:14.150Z,34.20
2023-02-22T06:13:42.091Z,30.70
2023-02-22T06:16:10.023Z,29.70
2023-02-22T06:18:39.632Z,32.13
2023-02-22T06:21:10.186Z,34.53
2023-02-22T06:23:38.104Z,32.97
2023-02-22T06:26:06.408Z,34.07
2023-02-22T06:28:34.456Z,33.27
2023-02-22T06:31:02.446Z,33.63
2023-02-22T06:33:30.489Z,35.10
2023-02-22T06:35:59.790Z,33.83
2023-02-22T06:38:28.612Z,34.90
2023-02-22T06:40:56.640Z,33.97
2023-02-22T06:43:24.970Z,36.13
2023-02-22T06:45:52.948Z,35.77
2023-02-22T06:48:21.038Z,39.10
2023-02-22T06:50:48.906Z,35.13
2023-02-22T06:53:18.199Z,36.67
2023-02-22T06:55:46.141Z,34.43
2023-02-22T06:58:14.017Z,34.43
2023-02-22T07:00:41.990Z,37.30
2023-02-22T07:03:10.005Z,34.47
2023-02-22T07:05:38.298Z,38.00
2023-02-22T07:08:08.632Z,37.13
2023-02-22T07:10:39.359Z,34.27
2023-02-22T07:13:08.737Z,38.43
2023-02-22T07:15:37.064Z,38.10
2023-02-22T07:18:05.690Z,40.20
2023-02-22T07:20:34.611Z,36.63
2023-02-22T07:23:02.871Z,34.23
2023-02-22T07:25:30.787Z,33.20
2023-02-22T07:28:00.601Z,34.93
2023-02-22T07:30:31.219Z,35.23
2023-02-22T07:33:00.525Z,34.43
2023-02-22T07:35:30.695Z,36.27
2023-02-22T07:37:58.900Z,33.33
2023-02-22T07:40:28.424Z,32.63
2023-02-22T07:43:00.400Z,32.53
2023-02-22T07:45:30.021Z,32.37
2023-02-22T07:47:58.407Z,31.67
2023-02-22T07:50:27.556Z,31.33
2023-02-22T07:52:57.018Z,31.77
2023-02-22T07:55:26.949Z,32.53
2023-02-22T07:57:56.681Z,31.80
2023-02-22T08:00:28.586Z,35.63
2023-02-22T08:02:57.151Z,36.83
2023-02-22T08:05:27.244Z,33.87
2023-02-22T08:07:55.501Z,36.87
2023-02-22T08:10:27.589Z,39.23
2023-02-22T08:12:56.850Z,42.40
2023-02-22T08:15:28.486Z,35.33
2023-02-22T08:18:00.986Z,33.83
2023-02-22T08:20:34.001Z,34.57
2023-02-22T08:23:03.337Z,35.83
2023-02-22T08:25:32.500Z,36.37
2023-02-22T08:28:02.262Z,32.00
2023-02-22T08:30:43.099Z,36.53
2023-02-22T08:33:16.350Z,35.37
2023-02-22T08:35:46.168Z,38.00
2023-02-22T08:38:28.843Z,38.50
2023-02-22T08:40:57.214Z,38.93
2023-02-22T08:43:25.996Z,36.73
2023-02-22T08:45:57.914Z,38.90
2023-02-22T08:48:28.419Z,34.53
2023-02-22T08:50:58.978Z,33.43
2023-02-22T08:53:28.010Z,40.60
2023-02-22T08:55:56.268Z,38.73
2023-02-22T08:58:24.623Z,36.90
2023-02-22T09:00:53.168Z,40.23
2023-02-22T09:03:22.951Z,33.93
2023-02-22T09:05:52.180Z,35.40
2023-02-22T09:08:25.280Z,35.37
2023-02-22T09:10:55.251Z,39.13
2023-02-22T09:13:23.535Z,40.67
2023-02-22T09:15:51.534Z,38.67
2023-02-22T09:18:21.066Z,38.13
2023-02-22T09:20:50.829Z,41.00
2023-02-22T09:23:21.732Z,39.37
2023-02-22T09:25:49.791Z,35.90
2023-02-22T09:28:18.582Z,35.63
2023-02-22T09:30:47.339Z,33.90
2023-02-22T09:33:17.427Z,32.77
2023-02-22T09:35:47.265Z,34.40
2023-02-22T09:38:20.374Z,35.17
2023-02-22T09:40:52.995Z,31.10
2023-02-22T09:43:40.606Z,35.17
2023-02-22T09:46:20.219Z,31.70
2023-02-22T09:49:07.360Z,35.40
2023-02-22T09:51:41.803Z,32.10
2023-02-22T09:54:20.300Z,34.80
2023-02-22T09:56:51.125Z,36.90
2023-02-22T09:59:27.028Z,33.33
2023-02-22T10:02:00.838Z,33.40
2023-02-22T10:04:41.327Z,37.63
2023-02-22T10:07:19.428Z,30.40
2023-02-22T10:09:50.798Z,35.97
2023-02-22T10:12:29.394Z,33.23
2023-02-22T10:15:24.672Z,33.10
2023-02-22T10:18:00.804Z,31.77
2023-02-22T10:20:43.608Z,36.97
2023-02-22T10:23:20.335Z,31.90
2023-02-22T10:25:57.331Z,32.93
2023-02-22T10:28:30.946Z,33.53
2023-02-22T10:31:02.088Z,35.03
2023-02-22T10:33:34.636Z,31.23
2023-02-22T10:36:03.136Z,32.77
2023-02-22T10:38:33.218Z,33.60
2023-02-22T10:41:17.615Z,31.73
2023-02-22T10:43:46.166Z,35.03
2023-02-22T10:46:18.588Z,30.83
2023-02-22T10:48:50.077Z,31.03
2023-02-22T10:51:18.125Z,27.10
2023-02-22T10:53:54.867Z,29.43
2023-02-22T10:56:25.962Z,31.50
2023-02-22T10:58:57.539Z,32.30
2023-02-22T11:01:29.409Z,27.80
2023-02-22T11:04:04.067Z,33.53
2023-02-22T11:06:33.695Z,28.90
2023-02-22T11:09:10.208Z,29.17
2023-02-22T11:11:46.798Z,29.83
2023-02-22T11:14:26.355Z,27.57
2023-02-22T11:16:56.850Z,31.03
2023-02-22T11:19:28.383Z,30.40
2023-02-22T11:21:59.018Z,26.60
2023-02-22T11:24:43.651Z,28.83
2023-02-22T11:27:26.424Z,28.33
2023-02-22T11:29:54.560Z,26.57
2023-02-22T11:32:24.844Z,24.47
2023-02-22T11:35:03.425Z,26.27
2023-02-22T11:37:41.990Z,25.17
2023-02-22T11:40:19.805Z,23.77
2023-02-22T11:42:50.206Z,23.63
2023-02-22T11:45:21.337Z,23.87
2023-02-22T11:47:53.566Z,25.87
2023-02-22T11:50:30.023Z,22.33
2023-02-22T11:53:17.435Z,22.63
2023-02-22T11:56:04.047Z,22.80
2023-02-22T11:58:42.655Z,23.13
2023-02-22T12:01:17.453Z,22.83
2023-02-22T12:04:25.122Z,22.67
2023-02-22T12:07:15.456Z,24.07
2023-02-22T12:10:05.489Z,23.40
2023-02-22T12:12:42.776Z,23.70
2023-02-22T12:15:31.475Z,20.57
2023-02-22T12:18:08.341Z,23.13
2023-02-22T12:20:40.667Z,22.07
2023-02-22T12:23:19.591Z,25.53
2023-02-22T12:25:58.710Z,25.00
2023-02-22T12:28:33.410Z,23.87
2023-02-22T12:31:15.696Z,20.93
2023-02-22T12:33:52.475Z,20.73
2023-02-22T12:36:34.036Z,22.97
2023-02-22T12:39:07.683Z,22.23
2023-02-22T12:41:41.562Z,21.60
2023-02-22T12:44:17.336Z,22.47
2023-02-22T12:46:50.269Z,25.63
2023-02-22T12:49:27.171Z,22.37
2023-02-22T12:52:01.456Z,22.63
2023-02-22T12:54:44.050Z,24.03
2023-02-22T12:57:18.891Z,22.27
2023-02-22T12:59:50.602Z,25.43
2023-02-22T13:02:28.491Z,24.00
2023-02-22T13:04:56.897Z,22.07
2023-02-22T13:07:42.536Z,25.10
2023-02-22T13:10:30.787Z,23.00
2023-02-22T13:13:05.308Z,22.00
2023-02-22T13:15:46.180Z,21.77
2023-02-22T13:18:22.309Z,22.53
2023-02-22T13:20:57.090Z,20.40
2023-02-22T13:23:43.690Z,21.57
2023-02-22T13:26:19.697Z,21.97
2023-02-22T13:28:53.951Z,21.27
2023-02-22T13:31:41.333Z,21.13
2023-02-22T13:34:50.020Z,22.90
2023-02-22T13:37:34.247Z,22.10
2023-02-22T13:40:36.584Z,23.40
2023-02-22T13:43:37.951Z,23.23
2023-02-22T13:46:44.162Z,20.57
2023-02-22T13:49:37.395Z,20.40
2023-02-22T13:52:13.565Z,21.93
2023-02-22T13:54:46.557Z,23.97
2023-02-22T13:57:23.097Z,21.83
2023-02-22T14:00:26.118Z,20.43
2023-02-22T14:03:03.720Z,21.83
2023-02-22T14:05:49.873Z,23.97
2023-02-22T14:08:46.557Z,20.60
2023-02-22T14:11:56.791Z,21.73
2023-02-22T14:14:26.437Z,22.67
2023-02-22T14:17:30.772Z,23.43
2023-02-22T14:20:14.694Z,27.90
2023-02-22T14:22:46.910Z,21.30
2023-02-22T14:25:39.188Z,21.67
2023-02-22T14:28:09.808Z,20.83
2023-02-22T14:30:41.072Z,23.60
2023-02-22T14:33:44.163Z,21.47
2023-02-22T14:36:14.644Z,23.47
2023-02-22T14:38:46.477Z,26.63
2023-02-22T14:41:15.952Z,24.57
2023-02-22T14:43:45.023Z,26.37
2023-02-22T14:46:21.125Z,24.33
2023-02-22T14:48:52.984Z,23.70
2023-02-22T14:51:29.104Z,24.33
2023-02-22T14:54:04.574Z,26.67
2023-02-22T14:56:41.232Z,23.57
2023-02-22T14:59:18.727Z,29.03
2023-02-22T15:01:58.718Z,25.73
2023-02-22T15:04:33.861Z,24.23
2023-02-22T15:07:22.433Z,23.43
2023-02-22T15:09:51.064Z,24.30
2023-02-22T15:12:29.855Z,23.37
2023-02-22T15:15:14.065Z,29.33
2023-02-22T15:17:46.098Z,25.47
2023-02-22T15:20:20.776Z,26.23
2023-02-22T15:22:50.979Z,28.77
2023-02-22T15:25:26.815Z,28.30
2023-02-22T15:27:55.269Z,21.67
2023-02-22T15:30:26.755Z,26.87
2023-02-22T15:33:04.236Z,24.77
2023-02-22T15:35:34.627Z,26.73
2023-02-22T15:38:06.999Z,26.07
2023-02-22T15:40:36.328Z,24.10
2023-02-22T15:43:08.875Z,25.13
2023-02-22T15:45:42.817Z,23.90
2023-02-22T15:48:12.673Z,25.73
2023-02-22T15:50:40.755Z,24.83
2023-02-22T15:53:27.345Z,27.33
2023-02-22T15:55:58.933Z,21.80
2023-02-22T15:58:29.983Z,22.27
2023-02-22T16:01:02.643Z,21.87
2023-02-22T16:03:38.734Z,20.23
2023-02-22T16:06:12.370Z,21.37
2023-02-22T16:08:54.720Z,19.77
2023-02-22T16:11:29.997Z,23.33
2023-02-22T16:14:01.661Z,19.17
2023-02-22T16:16:32.285Z,20.20
2023-02-22T16:19:37.035Z,19.60
2023-02-22T16:22:13.449Z,19.17
2023-02-22T16:24:42.963Z,19.33
2023-02-22T16:27:20.277Z,19.87
2023-02-22T16:30:22.183Z,18.47
2023-02-22T16:32:52.629Z,23.40
2023-02-22T16:35:20.605Z,19.83
2023-02-22T16:37:50.324Z,18.13
2023-02-22T16:40:24.816Z,20.83
2023-02-22T16:42:52.767Z,19.07
2023-02-22T16:45:22.329Z,18.10
2023-02-22T16:47:51.594Z,17.33
2023-02-22T16:50:19.508Z,19.00
2023-02-22T16:52:47.906Z,18.33
2023-02-22T16:55:18.776Z,16.50
2023-02-22T16:57:49.718Z,18.20
2023-02-22T17:00:31.001Z,18.70
2023-02-22T17:02:59.685Z,17.57
2023-02-22T17:05:27.759Z,17.23
2023-02-22T17:07:55.745Z,19.17
2023-02-22T17:10:23.742Z,19.07
2023-02-22T17:12:53.876Z,21.90
2023-02-22T17:15:24.621Z,19.67
2023-02-22T17:17:53.991Z,20.53
2023-02-22T17:20:30.107Z,19.83
2023-02-22T17:22:59.175Z,19.23
2023-02-22T17:25:30.971Z,19.53
2023-02-22T17:28:00.380Z,18.97
2023-02-22T17:30:28.521Z,17.90
2023-02-22T17:33:03.570Z,18.60
2023-02-22T17:35:35.616Z,20.70
2023-02-22T17:38:06.199Z,18.73
2023-02-22T17:40:35.077Z,19.53
2023-02-22T17:43:04.887Z,20.70
2023-02-22T17:45:32.914Z,21.47
2023-02-22T17:48:00.888Z,23.37
2023-02-22T17:50:31.350Z,20.33
2023-02-22T17:53:00.870Z,20.17
2023-02-22T17:55:29.144Z,20.67
2023-02-22T17:57:58.865Z,18.13
2023-02-22T18:00:33.947Z,17.57
2023-02-22T18:03:04.196Z,20.03
2023-02-22T18:05:33.035Z,17.90
2023-02-22T18:08:01.120Z,22.57
2023-02-22T18:10:29.011Z,19.33
2023-02-22T18:12:57.042Z,21.63
2023-02-22T18:15:28.288Z,21.27
2023-02-22T18:17:58.039Z,19.43
2023-02-22T18:20:31.079Z,20.70
2023-02-22T18:23:00.367Z,21.07
2023-02-22T18:25:28.515Z,21.77
2023-02-22T18:27:56.478Z,24.63
2023-02-22T18:30:24.876Z,21.27
2023-02-22T18:32:53.932Z,27.03
2023-02-22T18:35:25.358Z,22.77
2023-02-22T18:37:54.341Z,21.87
2023-02-22T18:40:23.839Z,24.83
2023-02-22T18:42:52.631Z,22.30
2023-02-22T18:45:21.179Z,24.40
2023-02-22T18:47:49.105Z,24.97
2023-02-22T18:50:17.820Z,25.33
2023-02-22T18:52:47.125Z,24.47
2023-02-22T18:55:17.218Z,26.80
2023-02-22T18:57:45.529Z,26.23
2023-02-22T19:00:16.660Z,27.93
2023-02-22T19:02:45.035Z,27.13
2023-02-22T19:05:19.571Z,30.17
2023-02-22T19:07:50.603Z,26.53
2023-02-22T19:10:22.914Z,34.23
2023-02-22T19:12:51.908Z,27.57
2023-02-22T19:15:20.377Z,31.03
2023-02-22T19:17:49.337Z,30.43
2023-02-22T19:20:18.108Z,31.67
2023-02-22T19:22:49.258Z,28.23
2023-02-22T19:25:18.772Z,34.40
2023-02-22T19:27:46.779Z,32.80
2023-02-22T19:30:16.828Z,31.50
2023-02-22T19:32:47.417Z,34.50
2023-02-22T19:35:26.036Z,33.73
2023-02-22T19:37:58.097Z,33.77
2023-02-22T19:40:27.546Z,33.10
2023-02-22T19:42:58.444Z,36.37
2023-02-22T19:45:30.369Z,33.80
2023-02-22T19:47:59.298Z,34.80
2023-02-22T19:50:27.422Z,38.13
2023-02-22T19:52:56.359Z,36.10
2023-02-22T19:55:26.648Z,34.77
2023-02-22T19:57:56.416Z,36.43
2023-02-22T20:00:27.068Z,36.70
2023-02-22T20:03:05.572Z,36.77
2023-02-22T20:05:37.139Z,34.97
2023-02-22T20:08:06.073Z,34.77
2023-02-22T20:10:38.070Z,35.43
2023-02-22T20:13:08.386Z,37.53
2023-02-22T20:15:37.501Z,36.43
2023-02-22T20:18:06.152Z,34.67
2023-02-22T20:20:34.534Z,35.27
2023-02-22T20:23:02.968Z,35.80
2023-02-22T20:25:32.340Z,33.37
2023-02-22T20:28:01.374Z,35.83
2023-02-22T20:30:33.613Z,35.27
2023-02-22T20:33:01.760Z,34.97
2023-02-22T20:35:30.101Z,36.00
2023-02-22T20:37:58.081Z,36.63
2023-02-22T20:40:26.036Z,34.17
2023-02-22T20:42:53.959Z,37.03
2023-02-22T20:45:22.566Z,37.23
2023-02-22T20:47:51.999Z,36.27
2023-02-22T20:50:20.221Z,35.37
2023-02-22T20:52:48.179Z,34.27
2023-02-22T20:55:16.270Z,37.50
2023-02-22T20:57:44.950Z,35.97
2023-02-22T21:00:15.588Z,35.67
2023-02-22T21:02:45.317Z,39.90
2023-02-22T21:05:24.676Z,38.13
2023-02-22T21:07:52.625Z,38.70
2023-02-22T21:10:21.967Z,36.67
2023-02-22T21:12:52.050Z,41.60
2023-02-22T21:15:20.175Z,36.83
2023-02-22T21:17:48.107Z,38.03
2023-02-22T21:20:21.774Z,36.37
2023-02-22T21:22:50.860Z,36.20
2023-02-22T21:25:18.834Z,35.40
2023-02-22T21:27:47.693Z,37.33
2023-02-22T21:30:16.060Z,38.80
2023-02-22T21:32:44.045Z,39.17
2023-02-22T21:35:11.932Z,43.97
2023-02-22T21:37:41.242Z,37.87
2023-02-22T21:40:12.011Z,35.30
2023-02-22T21:42:39.871Z,39.13
2023-02-22T21:45:08.887Z,34.80
2023-02-22T21:47:37.205Z,41.63
2023-02-22T21:50:07.262Z,39.40
2023-02-22T21:52:35.173Z,42.30
2023-02-22T21:55:05.401Z,38.23
2023-02-22T21:57:33.873Z,37.77
2023-02-22T22:00:12.817Z,39.30
2023-02-22T22:02:40.858Z,39.43
2023-02-22T22:05:11.622Z,38.30
2023-02-22T22:07:41.478Z,39.50
2023-02-22T22:10:26.300Z,37.67
2023-02-22T22:12:58.069Z,39.47
2023-02-22T22:15:25.985Z,39.17
2023-02-22T22:17:53.931Z,39.07
2023-02-22T22:20:22.154Z,36.93
2023-02-22T22:22:50.095Z,40.80
2023-02-22T22:25:21.080Z,35.47
2023-02-22T22:27:51.225Z,39.30
2023-02-22T22:30:20.044Z,38.00
2023-02-22T22:32:47.990Z,41.83
2023-02-22T22:35:16.010Z,38.77
2023-02-22T22:37:51.319Z,37.67
2023-02-22T22:40:21.317Z,40.10
2023-02-22T22:42:49.311Z,40.17
2023-02-22T22:45:18.188Z,40.30
2023-02-22T22:47:46.586Z,40.47
2023-02-22T22:50:19.953Z,37.47
2023-02-22T22:52:48.874Z,38.33
2023-02-22T22:55:16.932Z,38.50
2023-02-22T22:57:46.180Z,38.87
2023-02-22T23:00:33.518Z,38.40
2023-02-22T23:03:01.752Z,39.93
2023-02-22T23:05:29.813Z,40.33
2023-02-22T23:08:04.617Z,37.63
2023-02-22T23:10:33.369Z,36.70
2023-02-22T23:13:03.977Z,37.93
2023-02-22T23:15:31.897Z,40.17
2023-02-22T23:18:00.101Z,40.63
2023-02-22T23:20:28.103Z,40.40
2023-02-22T23:22:57.919Z,39.67
2023-02-22T23:25:26.222Z,38.23
2023-02-22T23:27:55.552Z,37.20
2023-02-22T23:30:25.062Z,41.93
2023-02-22T23:32:57.429Z,42.17
2023-02-22T23:35:26.670Z,40.03
2023-02-22T23:37:57.898Z,39.20
2023-02-22T23:40:26.222Z,37.17
2023-02-22T23:42:54.931Z,42.50
2023-02-22T23:45:25.650Z,37.90
2023-02-22T23:47:55.829Z,41.00
2023-02-22T23:50:24.798Z,39.47
2023-02-22T23:52:57.691Z,39.70
2023-02-22T23:55:26.306Z,42.50
2023-02-22T23:57:59.377Z,40.27
